DAOL

Tafaraoui Airport

Algeria
METAR DAOL 190500Z 14004KT 6000 FEW010 FEW026 21/21 Q1018
Observed Flight Rules
Sep-19 @ 05:00 UTC (14 minutes ago) Marginal Visual Flight Rules
Wind Visibility Clouds
140° at 4 knots 6,003 meters
  • Few at 1,000' AGL
  • Few at 2,600' AGL
Temperatures Readings
Current 21°C / 70°F
Dewpoint 21°C / 70°F
Humidity 100%
Altimeter 30.06" Hg
Pressure 1018 hPa
Elevation 112
METAR DAOL 190500Z 14004KT 6000 FEW010 FEW026 21/21 Q1018
Observed Flight Rules
Sep-19 @ 05:00 UTC
(14 minutes ago)
MVFR
Wind Visibility
140° at 4 knots 6,003 meters
Clouds
  • Few at 1,000' AGL
  • Few at 2,600' AGL
Temperature Dewpoint
21°C / 70°F 21°C / 70°F
Humidity Altimeter Pressure
100% 30.06" Hg 1018 hPa